sensor_id;sensor_type;location;lat;lon;timestamp;P1;durP1;ratioP1;P2;durP2;ratioP2
37701;SDS011;23548;51.196;6.838;2022-12-29T00:02:23;5.35;;;1.50;;
37701;SDS011;23548;51.196;6.838;2022-12-29T00:04:49;3.42;;;1.38;;
37701;SDS011;23548;51.196;6.838;2022-12-29T00:07:16;1.83;;;1.15;;
37701;SDS011;23548;51.196;6.838;2022-12-29T00:09:42;1.52;;;1.10;;
37701;SDS011;23548;51.196;6.838;2022-12-29T00:12:08;2.75;;;1.10;;
37701;SDS011;23548;51.196;6.838;2022-12-29T00:14:34;1.77;;;1.60;;
37701;SDS011;23548;51.196;6.838;2022-12-29T00:17:18;3.25;;;1.33;;
37701;SDS011;23548;51.196;6.838;2022-12-29T00:19:43;6.50;;;1.50;;
37701;SDS011;23548;51.196;6.838;2022-12-29T00:22:28;2.45;;;1.58;;
37701;SDS011;23548;51.196;6.838;2022-12-29T00:25:12;3.55;;;1.67;;
37701;SDS011;23548;51.196;6.838;2022-12-29T00:27:57;3.13;;;1.98;;
37701;SDS011;23548;51.196;6.838;2022-12-29T00:30:59;4.00;;;2.30;;
37701;SDS011;23548;51.196;6.838;2022-12-29T00:33:44;5.43;;;1.80;;
37701;SDS011;23548;51.196;6.838;2022-12-29T00:36:32;4.32;;;2.22;;
37701;SDS011;23548;51.196;6.838;2022-12-29T00:39:12;7.68;;;2.35;;
37701;SDS011;23548;51.196;6.838;2022-12-29T00:42:03;4.93;;;1.92;;
37701;SDS011;23548;51.196;6.838;2022-12-29T00:44:51;6.57;;;2.33;;
37701;SDS011;23548;51.196;6.838;2022-12-29T00:47:17;3.08;;;1.55;;
37701;SDS011;23548;51.196;6.838;2022-12-29T00:49:43;3.85;;;2.15;;
37701;SDS011;23548;51.196;6.838;2022-12-29T00:52:09;4.20;;;2.38;;
37701;SDS011;23548;51.196;6.838;2022-12-29T00:54:37;3.47;;;1.83;;
37701;SDS011;23548;51.196;6.838;2022-12-29T00:57:05;2.65;;;1.73;;
37701;SDS011;23548;51.196;6.838;2022-12-29T00:59:32;1.02;;;0.82;;
37701;SDS011;23548;51.196;6.838;2022-12-29T01:01:59;1.92;;;1.00;;
37701;SDS011;23548;51.196;6.838;2022-12-29T01:04:25;0.95;;;0.88;;
37701;SDS011;23548;51.196;6.838;2022-12-29T01:06:51;2.97;;;0.80;;
37701;SDS011;23548;51.196;6.838;2022-12-29T01:09:18;0.85;;;0.60;;
37701;SDS011;23548;51.196;6.838;2022-12-29T01:12:03;0.85;;;0.50;;
37701;SDS011;23548;51.196;6.838;2022-12-29T01:14:30;1.77;;;0.60;;
37701;SDS011;23548;51.196;6.838;2022-12-29T01:16:55;0.52;;;0.40;;
37701;SDS011;23548;51.196;6.838;2022-12-29T01:19:21;0.85;;;0.45;;
37701;SDS011;23548;51.196;6.838;2022-12-29T01:21:48;0.65;;;0.50;;
37701;SDS011;23548;51.196;6.838;2022-12-29T01:24:14;3.38;;;0.50;;
37701;SDS011;23548;51.196;6.838;2022-12-29T01:26:41;0.40;;;0.40;;
37701;SDS011;23548;51.196;6.838;2022-12-29T01:29:07;0.70;;;0.30;;
37701;SDS011;23548;51.196;6.838;2022-12-29T01:31:34;0.60;;;0.40;;
37701;SDS011;23548;51.196;6.838;2022-12-29T01:34:00;0.60;;;0.43;;
37701;SDS011;23548;51.196;6.838;2022-12-29T01:36:26;1.00;;;0.60;;
37701;SDS011;23548;51.196;6.838;2022-12-29T01:38:51;0.80;;;0.40;;
37701;SDS011;23548;51.196;6.838;2022-12-29T01:41:17;0.90;;;0.43;;
37701;SDS011;23548;51.196;6.838;2022-12-29T01:43:45;0.40;;;0.40;;
37701;SDS011;23548;51.196;6.838;2022-12-29T01:46:15;0.90;;;0.57;;
37701;SDS011;23548;51.196;6.838;2022-12-29T01:48:45;0.63;;;0.57;;
37701;SDS011;23548;51.196;6.838;2022-12-29T01:51:13;0.50;;;0.50;;
37701;SDS011;23548;51.196;6.838;2022-12-29T01:53:39;2.58;;;0.70;;
37701;SDS011;23548;51.196;6.838;2022-12-29T01:56:06;1.17;;;0.50;;
37701;SDS011;23548;51.196;6.838;2022-12-29T01:58:37;1.80;;;0.60;;
37701;SDS011;23548;51.196;6.838;2022-12-29T02:01:06;1.05;;;0.65;;
37701;SDS011;23548;51.196;6.838;2022-12-29T02:03:33;0.85;;;0.60;;
37701;SDS011;23548;51.196;6.838;2022-12-29T02:06:14;0.70;;;0.40;;
37701;SDS011;23548;51.196;6.838;2022-12-29T02:08:47;1.05;;;0.60;;
37701;SDS011;23548;51.196;6.838;2022-12-29T02:11:16;0.63;;;0.52;;
37701;SDS011;23548;51.196;6.838;2022-12-29T02:13:42;1.52;;;0.70;;
37701;SDS011;23548;51.196;6.838;2022-12-29T02:22:25;0.98;;;0.70;;
37701;SDS011;23548;51.196;6.838;2022-12-29T02:24:57;0.82;;;0.70;;
37701;SDS011;23548;51.196;6.838;2022-12-29T02:27:50;2.38;;;0.70;;
37701;SDS011;23548;51.196;6.838;2022-12-29T02:30:40;1.15;;;0.90;;
37701;SDS011;23548;51.196;6.838;2022-12-29T02:39:30;2.22;;;1.13;;
37701;SDS011;23548;51.196;6.838;2022-12-29T02:50:05;2.15;;;1.20;;
37701;SDS011;23548;51.196;6.838;2022-12-29T02:56:03;3.22;;;0.93;;
37701;SDS011;23548;51.196;6.838;2022-12-29T02:58:29;1.50;;;1.00;;
37701;SDS011;23548;51.196;6.838;2022-12-29T03:04:11;3.38;;;0.88;;
37701;SDS011;23548;51.196;6.838;2022-12-29T03:07:21;2.40;;;0.88;;
37701;SDS011;23548;51.196;6.838;2022-12-29T03:10:03;1.40;;;0.95;;
37701;SDS011;23548;51.196;6.838;2022-12-29T03:12:59;1.13;;;0.70;;
37701;SDS011;23548;51.196;6.838;2022-12-29T03:18:56;2.63;;;0.82;;
37701;SDS011;23548;51.196;6.838;2022-12-29T03:21:56;2.20;;;0.80;;
37701;SDS011;23548;51.196;6.838;2022-12-29T03:24:47;1.20;;;0.70;;
37701;SDS011;23548;51.196;6.838;2022-12-29T03:27:19;1.85;;;0.60;;
37701;SDS011;23548;51.196;6.838;2022-12-29T03:29:49;1.05;;;0.95;;
37701;SDS011;23548;51.196;6.838;2022-12-29T03:32:20;1.08;;;0.73;;
37701;SDS011;23548;51.196;6.838;2022-12-29T03:34:48;1.52;;;0.77;;
37701;SDS011;23548;51.196;6.838;2022-12-29T03:37:16;3.30;;;0.70;;
37701;SDS011;23548;51.196;6.838;2022-12-29T03:39:45;1.67;;;0.80;;
37701;SDS011;23548;51.196;6.838;2022-12-29T03:42:17;1.38;;;0.65;;
37701;SDS011;23548;51.196;6.838;2022-12-29T03:44:46;2.55;;;0.63;;
37701;SDS011;23548;51.196;6.838;2022-12-29T03:47:13;2.00;;;0.93;;
37701;SDS011;23548;51.196;6.838;2022-12-29T03:49:41;2.20;;;0.57;;
37701;SDS011;23548;51.196;6.838;2022-12-29T03:52:06;0.82;;;0.60;;
37701;SDS011;23548;51.196;6.838;2022-12-29T03:54:32;1.10;;;0.65;;
37701;SDS011;23548;51.196;6.838;2022-12-29T03:56:58;1.17;;;0.50;;
37701;SDS011;23548;51.196;6.838;2022-12-29T03:59:24;1.27;;;0.52;;
37701;SDS011;23548;51.196;6.838;2022-12-29T04:01:50;1.10;;;0.60;;
37701;SDS011;23548;51.196;6.838;2022-12-29T04:04:16;0.60;;;0.50;;
37701;SDS011;23548;51.196;6.838;2022-12-29T04:06:41;0.65;;;0.40;;
37701;SDS011;23548;51.196;6.838;2022-12-29T04:09:07;1.58;;;0.60;;
37701;SDS011;23548;51.196;6.838;2022-12-29T04:11:35;1.17;;;0.60;;
37701;SDS011;23548;51.196;6.838;2022-12-29T04:14:01;0.85;;;0.57;;
37701;SDS011;23548;51.196;6.838;2022-12-29T04:16:27;1.08;;;0.60;;
37701;SDS011;23548;51.196;6.838;2022-12-29T04:18:52;1.15;;;0.60;;
37701;SDS011;23548;51.196;6.838;2022-12-29T04:21:18;0.88;;;0.70;;
37701;SDS011;23548;51.196;6.838;2022-12-29T04:23:44;2.38;;;0.60;;
37701;SDS011;23548;51.196;6.838;2022-12-29T04:26:09;1.27;;;0.65;;
37701;SDS011;23548;51.196;6.838;2022-12-29T04:28:35;1.75;;;0.70;;
37701;SDS011;23548;51.196;6.838;2022-12-29T04:31:02;3.83;;;0.80;;
37701;SDS011;23548;51.196;6.838;2022-12-29T04:33:28;1.33;;;0.70;;
37701;SDS011;23548;51.196;6.838;2022-12-29T04:35:54;1.75;;;0.80;;
37701;SDS011;23548;51.196;6.838;2022-12-29T04:38:21;1.45;;;0.80;;
37701;SDS011;23548;51.196;6.838;2022-12-29T04:40:48;2.25;;;0.90;;
37701;SDS011;23548;51.196;6.838;2022-12-29T04:43:15;1.73;;;0.90;;
37701;SDS011;23548;51.196;6.838;2022-12-29T04:45:45;1.90;;;0.80;;
37701;SDS011;23548;51.196;6.838;2022-12-29T04:48:11;3.08;;;1.10;;
37701;SDS011;23548;51.196;6.838;2022-12-29T04:50:38;1.23;;;0.80;;
37701;SDS011;23548;51.196;6.838;2022-12-29T04:53:04;2.15;;;0.70;;
37701;SDS011;23548;51.196;6.838;2022-12-29T04:55:30;1.70;;;1.00;;
37701;SDS011;23548;51.196;6.838;2022-12-29T04:57:56;2.67;;;0.90;;
37701;SDS011;23548;51.196;6.838;2022-12-29T05:00:22;2.00;;;0.90;;
37701;SDS011;23548;51.196;6.838;2022-12-29T05:02:47;3.60;;;0.95;;
37701;SDS011;23548;51.196;6.838;2022-12-29T05:05:13;2.28;;;0.90;;
37701;SDS011;23548;51.196;6.838;2022-12-29T05:07:39;5.32;;;0.73;;
37701;SDS011;23548;51.196;6.838;2022-12-29T05:10:05;1.60;;;0.90;;
37701;SDS011;23548;51.196;6.838;2022-12-29T05:12:33;1.27;;;0.68;;
37701;SDS011;23548;51.196;6.838;2022-12-29T05:14:59;2.17;;;0.80;;
37701;SDS011;23548;51.196;6.838;2022-12-29T05:17:27;6.22;;;0.88;;
37701;SDS011;23548;51.196;6.838;2022-12-29T05:19:53;3.42;;;0.90;;
37701;SDS011;23548;51.196;6.838;2022-12-29T05:22:19;1.52;;;0.82;;
37701;SDS011;23548;51.196;6.838;2022-12-29T05:24:45;3.83;;;1.00;;
37701;SDS011;23548;51.196;6.838;2022-12-29T05:27:10;2.47;;;0.90;;
37701;SDS011;23548;51.196;6.838;2022-12-29T05:29:36;2.55;;;1.13;;
37701;SDS011;23548;51.196;6.838;2022-12-29T05:32:02;1.58;;;0.80;;
37701;SDS011;23548;51.196;6.838;2022-12-29T05:34:27;3.00;;;1.23;;
37701;SDS011;23548;51.196;6.838;2022-12-29T05:36:53;2.78;;;0.85;;
37701;SDS011;23548;51.196;6.838;2022-12-29T05:39:19;2.17;;;1.10;;
37701;SDS011;23548;51.196;6.838;2022-12-29T05:41:45;3.88;;;1.20;;
37701;SDS011;23548;51.196;6.838;2022-12-29T05:44:11;2.70;;;1.00;;
37701;SDS011;23548;51.196;6.838;2022-12-29T05:46:37;2.95;;;1.00;;
37701;SDS011;23548;51.196;6.838;2022-12-29T05:49:02;3.80;;;0.90;;
37701;SDS011;23548;51.196;6.838;2022-12-29T05:51:28;2.00;;;1.00;;
37701;SDS011;23548;51.196;6.838;2022-12-29T05:53:54;3.10;;;0.98;;
37701;SDS011;23548;51.196;6.838;2022-12-29T05:56:20;2.80;;;1.00;;
37701;SDS011;23548;51.196;6.838;2022-12-29T05:58:45;3.88;;;0.95;;
37701;SDS011;23548;51.196;6.838;2022-12-29T06:01:11;3.17;;;1.02;;
37701;SDS011;23548;51.196;6.838;2022-12-29T06:03:37;2.28;;;0.88;;
37701;SDS011;23548;51.196;6.838;2022-12-29T06:06:02;3.45;;;0.75;;
37701;SDS011;23548;51.196;6.838;2022-12-29T06:08:28;1.52;;;0.80;;
37701;SDS011;23548;51.196;6.838;2022-12-29T06:10:54;2.88;;;1.00;;
37701;SDS011;23548;51.196;6.838;2022-12-29T06:13:20;3.40;;;1.00;;
37701;SDS011;23548;51.196;6.838;2022-12-29T06:15:47;3.25;;;1.10;;
37701;SDS011;23548;51.196;6.838;2022-12-29T06:18:13;6.30;;;1.10;;
37701;SDS011;23548;51.196;6.838;2022-12-29T06:20:39;4.47;;;1.15;;
37701;SDS011;23548;51.196;6.838;2022-12-29T06:23:05;2.67;;;0.95;;
37701;SDS011;23548;51.196;6.838;2022-12-29T06:25:31;2.35;;;0.88;;
37701;SDS011;23548;51.196;6.838;2022-12-29T06:27:58;2.65;;;0.80;;
37701;SDS011;23548;51.196;6.838;2022-12-29T06:30:24;2.53;;;0.98;;
37701;SDS011;23548;51.196;6.838;2022-12-29T06:32:50;3.53;;;1.10;;
37701;SDS011;23548;51.196;6.838;2022-12-29T06:35:16;2.35;;;0.82;;
37701;SDS011;23548;51.196;6.838;2022-12-29T06:37:42;5.38;;;1.20;;
37701;SDS011;23548;51.196;6.838;2022-12-29T06:40:08;3.22;;;0.90;;
37701;SDS011;23548;51.196;6.838;2022-12-29T06:42:35;4.00;;;0.90;;
37701;SDS011;23548;51.196;6.838;2022-12-29T06:45:01;3.05;;;1.15;;
37701;SDS011;23548;51.196;6.838;2022-12-29T06:47:27;3.15;;;0.80;;
37701;SDS011;23548;51.196;6.838;2022-12-29T06:49:52;5.10;;;0.80;;
37701;SDS011;23548;51.196;6.838;2022-12-29T06:52:18;3.22;;;0.93;;
37701;SDS011;23548;51.196;6.838;2022-12-29T06:54:44;3.17;;;1.10;;
37701;SDS011;23548;51.196;6.838;2022-12-29T06:57:09;3.67;;;0.93;;
37701;SDS011;23548;51.196;6.838;2022-12-29T06:59:35;2.17;;;0.80;;
37701;SDS011;23548;51.196;6.838;2022-12-29T07:02:01;3.75;;;0.88;;
37701;SDS011;23548;51.196;6.838;2022-12-29T07:04:27;5.40;;;0.82;;
37701;SDS011;23548;51.196;6.838;2022-12-29T07:06:53;2.20;;;0.90;;
37701;SDS011;23548;51.196;6.838;2022-12-29T07:09:19;3.20;;;1.20;;
37701;SDS011;23548;51.196;6.838;2022-12-29T07:11:45;1.83;;;0.90;;
37701;SDS011;23548;51.196;6.838;2022-12-29T07:14:11;4.00;;;1.20;;
37701;SDS011;23548;51.196;6.838;2022-12-29T07:16:37;2.38;;;0.80;;
37701;SDS011;23548;51.196;6.838;2022-12-29T07:19:03;2.65;;;0.98;;
37701;SDS011;23548;51.196;6.838;2022-12-29T07:21:29;2.63;;;1.00;;
37701;SDS011;23548;51.196;6.838;2022-12-29T07:23:55;2.75;;;0.93;;
37701;SDS011;23548;51.196;6.838;2022-12-29T07:26:21;3.35;;;1.05;;
37701;SDS011;23548;51.196;6.838;2022-12-29T07:28:46;5.82;;;0.98;;
37701;SDS011;23548;51.196;6.838;2022-12-29T07:31:16;3.42;;;0.90;;
37701;SDS011;23548;51.196;6.838;2022-12-29T07:33:44;4.80;;;0.90;;
37701;SDS011;23548;51.196;6.838;2022-12-29T07:36:10;6.25;;;0.95;;
37701;SDS011;23548;51.196;6.838;2022-12-29T07:38:37;4.03;;;1.00;;
37701;SDS011;23548;51.196;6.838;2022-12-29T07:41:04;2.53;;;0.85;;
37701;SDS011;23548;51.196;6.838;2022-12-29T07:43:29;3.53;;;1.00;;
37701;SDS011;23548;51.196;6.838;2022-12-29T07:45:55;6.13;;;1.17;;
37701;SDS011;23548;51.196;6.838;2022-12-29T07:48:21;6.65;;;1.13;;
37701;SDS011;23548;51.196;6.838;2022-12-29T07:50:47;6.07;;;0.93;;
37701;SDS011;23548;51.196;6.838;2022-12-29T07:53:13;7.07;;;1.05;;
37701;SDS011;23548;51.196;6.838;2022-12-29T07:55:39;3.03;;;1.15;;
37701;SDS011;23548;51.196;6.838;2022-12-29T07:58:05;3.90;;;1.08;;
37701;SDS011;23548;51.196;6.838;2022-12-29T08:00:30;4.30;;;1.42;;
37701;SDS011;23548;51.196;6.838;2022-12-29T08:02:56;9.23;;;1.48;;
37701;SDS011;23548;51.196;6.838;2022-12-29T08:05:22;3.97;;;1.13;;
37701;SDS011;23548;51.196;6.838;2022-12-29T08:07:48;6.03;;;1.00;;
37701;SDS011;23548;51.196;6.838;2022-12-29T08:10:14;5.72;;;1.20;;
37701;SDS011;23548;51.196;6.838;2022-12-29T08:12:40;3.63;;;1.00;;
37701;SDS011;23548;51.196;6.838;2022-12-29T08:15:07;7.13;;;1.50;;
37701;SDS011;23548;51.196;6.838;2022-12-29T08:17:34;5.13;;;1.02;;
37701;SDS011;23548;51.196;6.838;2022-12-29T08:20:00;7.40;;;1.52;;
37701;SDS011;23548;51.196;6.838;2022-12-29T08:22:26;3.55;;;0.88;;
37701;SDS011;23548;51.196;6.838;2022-12-29T08:24:52;6.00;;;1.35;;
37701;SDS011;23548;51.196;6.838;2022-12-29T08:27:17;3.88;;;1.00;;
37701;SDS011;23548;51.196;6.838;2022-12-29T08:29:43;6.28;;;1.30;;
37701;SDS011;23548;51.196;6.838;2022-12-29T08:32:09;6.93;;;1.20;;
37701;SDS011;23548;51.196;6.838;2022-12-29T08:34:35;4.43;;;1.13;;
37701;SDS011;23548;51.196;6.838;2022-12-29T08:37:01;4.15;;;0.93;;
37701;SDS011;23548;51.196;6.838;2022-12-29T08:39:26;6.57;;;1.13;;
37701;SDS011;23548;51.196;6.838;2022-12-29T08:41:52;7.90;;;0.90;;
37701;SDS011;23548;51.196;6.838;2022-12-29T08:44:18;5.00;;;1.13;;
37701;SDS011;23548;51.196;6.838;2022-12-29T08:46:44;11.75;;;1.40;;
37701;SDS011;23548;51.196;6.838;2022-12-29T08:49:09;6.28;;;1.70;;
37701;SDS011;23548;51.196;6.838;2022-12-29T08:51:35;9.52;;;1.13;;
37701;SDS011;23548;51.196;6.838;2022-12-29T08:54:01;8.07;;;1.20;;
37701;SDS011;23548;51.196;6.838;2022-12-29T08:56:27;10.52;;;1.15;;
37701;SDS011;23548;51.196;6.838;2022-12-29T08:58:53;8.40;;;1.60;;
37701;SDS011;23548;51.196;6.838;2022-12-29T09:01:20;4.00;;;1.23;;
37701;SDS011;23548;51.196;6.838;2022-12-29T09:03:46;6.05;;;1.65;;
37701;SDS011;23548;51.196;6.838;2022-12-29T09:06:12;5.22;;;1.23;;
37701;SDS011;23548;51.196;6.838;2022-12-29T09:08:38;6.80;;;1.55;;
37701;SDS011;23548;51.196;6.838;2022-12-29T09:11:11;9.75;;;1.70;;
37701;SDS011;23548;51.196;6.838;2022-12-29T09:13:39;6.82;;;1.73;;
37701;SDS011;23548;51.196;6.838;2022-12-29T09:16:05;4.65;;;1.25;;
37701;SDS011;23548;51.196;6.838;2022-12-29T09:18:31;5.55;;;1.55;;
37701;SDS011;23548;51.196;6.838;2022-12-29T09:20:57;10.10;;;1.40;;
37701;SDS011;23548;51.196;6.838;2022-12-29T09:23:24;7.03;;;1.50;;
37701;SDS011;23548;51.196;6.838;2022-12-29T09:25:50;6.32;;;1.40;;
37701;SDS011;23548;51.196;6.838;2022-12-29T09:28:16;4.00;;;1.27;;
37701;SDS011;23548;51.196;6.838;2022-12-29T09:30:42;8.35;;;1.55;;
37701;SDS011;23548;51.196;6.838;2022-12-29T09:33:26;5.28;;;1.40;;
37701;SDS011;23548;51.196;6.838;2022-12-29T09:39:32;9.75;;;1.40;;
37701;SDS011;23548;51.196;6.838;2022-12-29T09:47:19;5.20;;;1.35;;
37701;SDS011;23548;51.196;6.838;2022-12-29T09:49:49;10.05;;;1.50;;
37701;SDS011;23548;51.196;6.838;2022-12-29T09:52:23;7.75;;;1.42;;
37701;SDS011;23548;51.196;6.838;2022-12-29T09:55:01;10.27;;;1.50;;
37701;SDS011;23548;51.196;6.838;2022-12-29T09:57:41;12.85;;;1.60;;
37701;SDS011;23548;51.196;6.838;2022-12-29T10:00:14;6.00;;;1.48;;
37701;SDS011;23548;51.196;6.838;2022-12-29T10:05:54;10.40;;;1.90;;
37701;SDS011;23548;51.196;6.838;2022-12-29T10:24:21;9.20;;;1.50;;
37701;SDS011;23548;51.196;6.838;2022-12-29T10:26:48;6.43;;;1.83;;
37701;SDS011;23548;51.196;6.838;2022-12-29T10:29:18;7.45;;;1.20;;
37701;SDS011;23548;51.196;6.838;2022-12-29T10:32:02;6.05;;;1.40;;
37701;SDS011;23548;51.196;6.838;2022-12-29T10:34:36;5.88;;;1.65;;
37701;SDS011;23548;51.196;6.838;2022-12-29T10:37:27;5.63;;;1.70;;
37701;SDS011;23548;51.196;6.838;2022-12-29T10:40:29;6.15;;;1.58;;
37701;SDS011;23548;51.196;6.838;2022-12-29T10:43:20;6.35;;;1.75;;
37701;SDS011;23548;51.196;6.838;2022-12-29T10:46:21;9.98;;;1.52;;
37701;SDS011;23548;51.196;6.838;2022-12-29T10:48:50;6.47;;;1.05;;
37701;SDS011;23548;51.196;6.838;2022-12-29T10:51:27;7.68;;;1.40;;
37701;SDS011;23548;51.196;6.838;2022-12-29T10:54:58;7.45;;;1.35;;
37701;SDS011;23548;51.196;6.838;2022-12-29T10:56:54;5.00;;;1.48;;
37701;SDS011;23548;51.196;6.838;2022-12-29T10:59:30;8.05;;;1.35;;
37701;SDS011;23548;51.196;6.838;2022-12-29T11:07:27;6.93;;;1.35;;
37701;SDS011;23548;51.196;6.838;2022-12-29T11:09:55;10.25;;;1.52;;
37701;SDS011;23548;51.196;6.838;2022-12-29T11:17:45;10.13;;;2.25;;
37701;SDS011;23548;51.196;6.838;2022-12-29T11:20:40;15.48;;;1.98;;
37701;SDS011;23548;51.196;6.838;2022-12-29T11:26:14;8.50;;;1.42;;
37701;SDS011;23548;51.196;6.838;2022-12-29T11:28:38;8.70;;;2.03;;
37701;SDS011;23548;51.196;6.838;2022-12-29T11:31:05;10.00;;;1.90;;
37701;SDS011;23548;51.196;6.838;2022-12-29T11:33:32;6.75;;;1.30;;
37701;SDS011;23548;51.196;6.838;2022-12-29T11:36:20;11.45;;;1.40;;
37701;SDS011;23548;51.196;6.838;2022-12-29T11:38:49;8.52;;;1.38;;
37701;SDS011;23548;51.196;6.838;2022-12-29T11:41:24;11.60;;;1.70;;
37701;SDS011;23548;51.196;6.838;2022-12-29T11:43:53;16.80;;;1.70;;
37701;SDS011;23548;51.196;6.838;2022-12-29T11:46:32;13.52;;;2.08;;
37701;SDS011;23548;51.196;6.838;2022-12-29T11:49:01;7.00;;;1.38;;
37701;SDS011;23548;51.196;6.838;2022-12-29T11:51:29;8.85;;;1.52;;
37701;SDS011;23548;51.196;6.838;2022-12-29T11:54:02;7.93;;;1.17;;
37701;SDS011;23548;51.196;6.838;2022-12-29T12:01:52;12.00;;;1.50;;
37701;SDS011;23548;51.196;6.838;2022-12-29T12:04:21;5.80;;;1.38;;
37701;SDS011;23548;51.196;6.838;2022-12-29T12:06:57;11.73;;;1.77;;
37701;SDS011;23548;51.196;6.838;2022-12-29T12:09:36;9.95;;;2.35;;
37701;SDS011;23548;51.196;6.838;2022-12-29T12:12:29;10.85;;;1.35;;
37701;SDS011;23548;51.196;6.838;2022-12-29T12:15:00;10.75;;;1.65;;
37701;SDS011;23548;51.196;6.838;2022-12-29T12:23:25;7.72;;;1.75;;
37701;SDS011;23548;51.196;6.838;2022-12-29T12:26:15;12.68;;;1.80;;
37701;SDS011;23548;51.196;6.838;2022-12-29T12:29:03;14.55;;;1.70;;
37701;SDS011;23548;51.196;6.838;2022-12-29T12:34:07;13.70;;;2.13;;
37701;SDS011;23548;51.196;6.838;2022-12-29T12:50:31;6.95;;;1.20;;
37701;SDS011;23548;51.196;6.838;2022-12-29T12:55:58;6.25;;;1.23;;
37701;SDS011;23548;51.196;6.838;2022-12-29T13:16:13;6.38;;;1.40;;
37701;SDS011;23548;51.196;6.838;2022-12-29T13:18:57;25.65;;;11.10;;
37701;SDS011;23548;51.196;6.838;2022-12-29T13:26:59;9.40;;;1.50;;
37701;SDS011;23548;51.196;6.838;2022-12-29T13:41:08;10.23;;;1.65;;
37701;SDS011;23548;51.196;6.838;2022-12-29T13:43:42;13.13;;;1.77;;
37701;SDS011;23548;51.196;6.838;2022-12-29T14:03:55;8.52;;;1.35;;
37701;SDS011;23548;51.196;6.838;2022-12-29T14:06:26;8.10;;;1.70;;
37701;SDS011;23548;51.196;6.838;2022-12-29T14:08:54;6.00;;;1.20;;
37701;SDS011;23548;51.196;6.838;2022-12-29T14:11:44;6.93;;;1.30;;
37701;SDS011;23548;51.196;6.838;2022-12-29T14:16:46;5.88;;;1.40;;
37701;SDS011;23548;51.196;6.838;2022-12-29T14:19:19;5.72;;;0.98;;
37701;SDS011;23548;51.196;6.838;2022-12-29T14:21:59;6.72;;;1.77;;
37701;SDS011;23548;51.196;6.838;2022-12-29T14:34:53;7.22;;;1.40;;
37701;SDS011;23548;51.196;6.838;2022-12-29T14:37:45;6.55;;;1.33;;
37701;SDS011;23548;51.196;6.838;2022-12-29T14:42:43;6.95;;;1.17;;
37701;SDS011;23548;51.196;6.838;2022-12-29T14:47:43;7.47;;;1.48;;
37701;SDS011;23548;51.196;6.838;2022-12-29T14:56:16;7.60;;;1.58;;
37701;SDS011;23548;51.196;6.838;2022-12-29T15:01:27;7.80;;;1.38;;
37701;SDS011;23548;51.196;6.838;2022-12-29T15:04:18;10.35;;;1.92;;
37701;SDS011;23548;51.196;6.838;2022-12-29T15:06:47;6.40;;;1.40;;
37701;SDS011;23548;51.196;6.838;2022-12-29T15:12:04;5.68;;;1.60;;
37701;SDS011;23548;51.196;6.838;2022-12-29T15:14:33;7.30;;;1.27;;
37701;SDS011;23548;51.196;6.838;2022-12-29T15:17:02;6.13;;;1.88;;
37701;SDS011;23548;51.196;6.838;2022-12-29T15:26:20;4.50;;;1.50;;
37701;SDS011;23548;51.196;6.838;2022-12-29T15:28:48;8.63;;;1.33;;
37701;SDS011;23548;51.196;6.838;2022-12-29T15:31:21;6.15;;;1.63;;
37701;SDS011;23548;51.196;6.838;2022-12-29T15:33:53;6.88;;;1.60;;
37701;SDS011;23548;51.196;6.838;2022-12-29T15:38:47;8.43;;;1.42;;
37701;SDS011;23548;51.196;6.838;2022-12-29T15:46:27;6.13;;;1.65;;
37701;SDS011;23548;51.196;6.838;2022-12-29T15:48:55;8.68;;;1.60;;
37701;SDS011;23548;51.196;6.838;2022-12-29T15:51:30;8.48;;;1.73;;
37701;SDS011;23548;51.196;6.838;2022-12-29T15:54:00;8.20;;;1.40;;
37701;SDS011;23548;51.196;6.838;2022-12-29T15:56:31;7.47;;;1.80;;
37701;SDS011;23548;51.196;6.838;2022-12-29T15:58:58;7.28;;;1.77;;
37701;SDS011;23548;51.196;6.838;2022-12-29T16:01:34;6.43;;;1.30;;
37701;SDS011;23548;51.196;6.838;2022-12-29T16:04:19;9.50;;;1.90;;
37701;SDS011;23548;51.196;6.838;2022-12-29T16:07:03;8.10;;;1.92;;
37701;SDS011;23548;51.196;6.838;2022-12-29T16:09:43;6.20;;;1.63;;
37701;SDS011;23548;51.196;6.838;2022-12-29T16:12:16;7.50;;;1.50;;
37701;SDS011;23548;51.196;6.838;2022-12-29T16:14:46;7.88;;;1.77;;
37701;SDS011;23548;51.196;6.838;2022-12-29T16:17:15;8.45;;;1.73;;
37701;SDS011;23548;51.196;6.838;2022-12-29T16:19:49;8.70;;;2.05;;
37701;SDS011;23548;51.196;6.838;2022-12-29T16:22:27;9.68;;;1.75;;
37701;SDS011;23548;51.196;6.838;2022-12-29T16:25:03;8.15;;;2.10;;
37701;SDS011;23548;51.196;6.838;2022-12-29T16:27:48;8.10;;;1.77;;
37701;SDS011;23548;51.196;6.838;2022-12-29T16:32:50;8.18;;;2.17;;
37701;SDS011;23548;51.196;6.838;2022-12-29T16:35:25;6.30;;;1.85;;
37701;SDS011;23548;51.196;6.838;2022-12-29T16:40:52;8.98;;;2.38;;
37701;SDS011;23548;51.196;6.838;2022-12-29T16:43:24;8.70;;;1.92;;
37701;SDS011;23548;51.196;6.838;2022-12-29T16:48:18;6.63;;;2.05;;
37701;SDS011;23548;51.196;6.838;2022-12-29T16:50:46;9.75;;;2.42;;
37701;SDS011;23548;51.196;6.838;2022-12-29T16:55:49;6.80;;;1.85;;
37701;SDS011;23548;51.196;6.838;2022-12-29T16:58:21;11.38;;;2.05;;
37701;SDS011;23548;51.196;6.838;2022-12-29T17:00:55;10.60;;;2.45;;
37701;SDS011;23548;51.196;6.838;2022-12-29T17:03:27;9.82;;;2.17;;
37701;SDS011;23548;51.196;6.838;2022-12-29T17:06:04;10.43;;;2.40;;
37701;SDS011;23548;51.196;6.838;2022-12-29T17:08:38;9.10;;;2.03;;
37701;SDS011;23548;51.196;6.838;2022-12-29T17:11:08;15.40;;;2.40;;
37701;SDS011;23548;51.196;6.838;2022-12-29T17:14:17;7.03;;;2.22;;
37701;SDS011;23548;51.196;6.838;2022-12-29T17:16:52;9.18;;;2.92;;
37701;SDS011;23548;51.196;6.838;2022-12-29T17:19:20;8.65;;;2.50;;
37701;SDS011;23548;51.196;6.838;2022-12-29T17:21:53;10.85;;;2.63;;
37701;SDS011;23548;51.196;6.838;2022-12-29T17:24:21;11.77;;;2.72;;
37701;SDS011;23548;51.196;6.838;2022-12-29T17:26:48;11.98;;;2.97;;
37701;SDS011;23548;51.196;6.838;2022-12-29T17:29:18;14.93;;;3.42;;
37701;SDS011;23548;51.196;6.838;2022-12-29T17:31:51;9.85;;;2.80;;
37701;SDS011;23548;51.196;6.838;2022-12-29T17:34:18;15.18;;;3.33;;
37701;SDS011;23548;51.196;6.838;2022-12-29T17:36:44;15.23;;;3.05;;
37701;SDS011;23548;51.196;6.838;2022-12-29T17:39:10;14.35;;;3.00;;
37701;SDS011;23548;51.196;6.838;2022-12-29T17:41:36;17.95;;;3.40;;
37701;SDS011;23548;51.196;6.838;2022-12-29T17:44:03;12.20;;;2.50;;
37701;SDS011;23548;51.196;6.838;2022-12-29T17:46:30;9.73;;;2.58;;
37701;SDS011;23548;51.196;6.838;2022-12-29T17:48:57;9.15;;;2.30;;
37701;SDS011;23548;51.196;6.838;2022-12-29T17:51:23;15.70;;;3.53;;
37701;SDS011;23548;51.196;6.838;2022-12-29T17:53:48;9.27;;;3.05;;
37701;SDS011;23548;51.196;6.838;2022-12-29T17:56:16;11.18;;;2.30;;
37701;SDS011;23548;51.196;6.838;2022-12-29T17:58:42;10.40;;;2.63;;
37701;SDS011;23548;51.196;6.838;2022-12-29T18:01:10;13.48;;;3.15;;
37701;SDS011;23548;51.196;6.838;2022-12-29T18:03:37;10.93;;;3.00;;
37701;SDS011;23548;51.196;6.838;2022-12-29T18:06:04;15.45;;;2.58;;
37701;SDS011;23548;51.196;6.838;2022-12-29T18:08:35;11.90;;;2.70;;
37701;SDS011;23548;51.196;6.838;2022-12-29T18:11:17;15.82;;;3.42;;
37701;SDS011;23548;51.196;6.838;2022-12-29T18:13:46;13.18;;;2.72;;
37701;SDS011;23548;51.196;6.838;2022-12-29T18:16:12;16.50;;;3.45;;
37701;SDS011;23548;51.196;6.838;2022-12-29T18:18:38;10.68;;;2.47;;
37701;SDS011;23548;51.196;6.838;2022-12-29T18:21:04;14.65;;;2.47;;
37701;SDS011;23548;51.196;6.838;2022-12-29T18:23:31;19.33;;;3.58;;
37701;SDS011;23548;51.196;6.838;2022-12-29T18:26:02;18.23;;;3.83;;
37701;SDS011;23548;51.196;6.838;2022-12-29T18:28:29;13.48;;;3.13;;
37701;SDS011;23548;51.196;6.838;2022-12-29T18:30:56;19.75;;;3.92;;
37701;SDS011;23548;51.196;6.838;2022-12-29T18:33:24;19.00;;;3.58;;
37701;SDS011;23548;51.196;6.838;2022-12-29T18:35:51;11.13;;;2.95;;